createdAt,value
2023-01-24T04:55:09.581Z,88.37
2023-01-24T04:58:13.485Z,88.51
2023-01-24T05:01:15.693Z,88.85
2023-01-24T05:04:19.302Z,88.62
2023-01-24T05:07:21.446Z,89.02
2023-01-24T05:10:25.171Z,88.43
2023-01-24T05:13:28.011Z,89.57
2023-01-24T05:16:30.599Z,86.50
2023-01-24T05:19:33.516Z,86.20
2023-01-24T05:22:36.098Z,86.56
2023-01-24T05:25:38.442Z,90.77
2023-01-24T05:28:41.058Z,88.87
2023-01-24T05:31:43.358Z,87.77
2023-01-24T05:34:46.610Z,91.17
2023-01-24T05:37:51.805Z,89.50
2023-01-24T05:40:54.676Z,88.49
2023-01-24T05:43:56.939Z,87.50
2023-01-24T05:46:59.676Z,88.83
2023-01-24T05:50:02.565Z,87.83
2023-01-24T05:53:05.086Z,87.39
2023-01-24T05:56:14.205Z,87.42
2023-01-24T05:59:17.111Z,87.54
2023-01-24T06:02:19.680Z,88.66
2023-01-24T06:05:22.507Z,90.13
2023-01-24T06:08:25.041Z,92.37
2023-01-24T06:11:28.576Z,93.45
2023-01-24T06:14:33.606Z,93.37
2023-01-24T06:17:36.048Z,92.54
2023-01-24T06:20:38.660Z,93.20
2023-01-24T06:23:41.214Z,93.11
2023-01-24T06:26:43.803Z,93.27
2023-01-24T06:29:46.551Z,93.73
2023-01-24T06:33:26.943Z,92.88
2023-01-24T06:36:45.526Z,90.39
2023-01-24T06:39:51.010Z,91.86
2023-01-24T06:42:53.968Z,89.53
2023-01-24T06:45:56.931Z,91.75
2023-01-24T06:48:59.954Z,92.03
2023-01-24T06:52:02.213Z,90.33
2023-01-24T06:55:06.037Z,91.23
2023-01-24T06:58:08.163Z,93.43
2023-01-24T07:01:10.614Z,92.08
2023-01-24T07:04:13.192Z,92.67
2023-01-24T07:07:15.671Z,93.75
2023-01-24T07:10:18.042Z,91.31
2023-01-24T07:13:20.561Z,92.71
2023-01-24T07:16:22.730Z,92.52
2023-01-24T07:19:26.539Z,92.39
2023-01-24T07:22:29.081Z,92.83
2023-01-24T07:25:32.094Z,90.61
2023-01-24T07:28:34.229Z,89.33
2023-01-24T07:31:36.718Z,86.04
2023-01-24T07:34:39.434Z,84.49
2023-01-24T07:37:41.859Z,82.21
2023-01-24T07:40:43.995Z,84.64
2023-01-24T07:43:46.524Z,85.88
2023-01-24T07:46:48.733Z,83.38
2023-01-24T07:49:51.151Z,83.40
2023-01-24T07:52:56.422Z,82.23
2023-01-24T07:56:02.917Z,80.60
2023-01-24T07:59:05.730Z,79.59
2023-01-24T08:02:11.977Z,81.40
2023-01-24T08:05:14.447Z,81.02
2023-01-24T08:08:16.675Z,81.30
2023-01-24T08:11:19.268Z,79.88
2023-01-24T08:14:22.775Z,79.86
2023-01-24T08:17:25.258Z,79.50
2023-01-24T08:20:30.152Z,80.86
2023-01-24T08:23:32.758Z,80.62
2023-01-24T08:26:34.919Z,81.75
2023-01-24T08:29:37.419Z,81.60
2023-01-24T08:32:39.987Z,80.66
2023-01-24T08:35:42.430Z,80.89
2023-01-24T08:38:44.550Z,81.32
2023-01-24T08:41:47.212Z,80.81
2023-01-24T08:44:49.355Z,81.46
2023-01-24T08:47:53.720Z,80.25
2023-01-24T08:50:56.940Z,80.71
2023-01-24T08:53:59.421Z,80.70
2023-01-24T08:57:02.087Z,80.47
2023-01-24T09:00:05.323Z,80.05
2023-01-24T09:03:07.478Z,79.67
2023-01-24T09:06:10.847Z,80.06
2023-01-24T09:09:13.014Z,80.19
2023-01-24T09:12:15.395Z,79.73
2023-01-24T09:15:17.634Z,78.93
2023-01-24T09:18:20.024Z,81.92
2023-01-24T09:21:22.682Z,80.57
2023-01-24T09:24:25.903Z,78.62
2023-01-24T09:27:27.997Z,80.76
2023-01-24T09:30:30.477Z,79.23
2023-01-24T09:33:32.662Z,78.90
2023-01-24T09:36:35.140Z,77.75
2023-01-24T09:39:37.590Z,77.20
2023-01-24T09:42:51.520Z,77.17
2023-01-24T09:46:07.205Z,77.21
2023-01-24T09:49:23.019Z,77.22
2023-01-24T09:52:32.339Z,77.67
2023-01-24T09:55:43.319Z,75.62
2023-01-24T09:58:45.949Z,74.90
2023-01-24T10:01:50.434Z,73.90
2023-01-24T10:04:53.712Z,69.00
2023-01-24T10:08:02.798Z,66.63
2023-01-24T10:11:20.219Z,64.24
2023-01-24T10:14:42.140Z,65.60
2023-01-24T10:17:59.483Z,62.85
2023-01-24T10:21:25.384Z,64.71
2023-01-24T10:24:36.950Z,61.65
2023-01-24T10:27:52.434Z,61.59
2023-01-24T10:31:16.537Z,62.23
2023-01-24T10:34:50.880Z,62.27
2023-01-24T10:37:57.865Z,62.57
2023-01-24T10:41:15.138Z,62.80
2023-01-24T10:44:29.475Z,61.63
2023-01-24T10:47:31.575Z,62.91
2023-01-24T10:50:43.519Z,64.04
2023-01-24T10:53:46.377Z,64.65
2023-01-24T10:56:49.487Z,63.60
2023-01-24T10:59:52.442Z,64.17
2023-01-24T11:02:57.418Z,64.56
2023-01-24T11:05:59.626Z,62.83
2023-01-24T11:09:17.297Z,63.71
2023-01-24T11:12:21.574Z,62.21
2023-01-24T11:15:33.474Z,64.34
2023-01-24T11:18:38.150Z,62.86
2023-01-24T11:21:53.485Z,60.92
2023-01-24T11:25:01.225Z,60.01
2023-01-24T11:28:03.768Z,59.58
2023-01-24T11:31:34.362Z,60.57
2023-01-24T11:35:03.524Z,60.57
2023-01-24T11:38:11.715Z,59.44
2023-01-24T11:41:16.761Z,58.16
2023-01-24T11:45:09.408Z,58.63
2023-01-24T11:48:22.852Z,58.12
2023-01-24T11:51:51.120Z,58.67
2023-01-24T11:55:14.345Z,59.26
2023-01-24T11:58:34.907Z,57.17
2023-01-24T12:01:53.883Z,58.96
2023-01-24T12:05:13.586Z,57.22
2023-01-24T12:08:46.930Z,55.66
2023-01-24T12:12:18.703Z,56.44
2023-01-24T12:15:29.706Z,55.93
2023-01-24T12:18:57.863Z,56.33
2023-01-24T12:22:01.394Z,55.47
2023-01-24T12:25:11.955Z,55.51
2023-01-24T12:28:24.887Z,55.27
2023-01-24T12:31:38.885Z,55.63
2023-01-24T12:35:01.363Z,55.54
2023-01-24T12:38:09.579Z,54.68
2023-01-24T12:41:36.764Z,56.10
2023-01-24T12:44:48.241Z,56.82
2023-01-24T12:48:21.751Z,57.92
2023-01-24T12:51:33.437Z,57.68
2023-01-24T12:54:45.370Z,57.81
2023-01-24T12:58:14.673Z,57.52
2023-01-24T13:01:40.705Z,59.54
2023-01-24T13:04:59.142Z,61.10
2023-01-24T13:08:19.543Z,60.57
2023-01-24T13:11:24.969Z,60.06
2023-01-24T13:14:39.020Z,60.66
2023-01-24T13:18:06.981Z,62.97
2023-01-24T13:21:17.835Z,64.23
2023-01-24T13:24:39.011Z,66.40
2023-01-24T13:27:51.292Z,65.74
2023-01-24T13:31:26.981Z,67.41
2023-01-24T13:34:36.069Z,65.90
2023-01-24T13:37:40.337Z,68.50
2023-01-24T13:40:58.627Z,69.62
2023-01-24T13:44:02.602Z,70.08
2023-01-24T13:47:23.670Z,73.26
2023-01-24T13:50:30.804Z,73.01
2023-01-24T13:53:57.977Z,71.99
2023-01-24T13:57:28.962Z,72.24
2023-01-24T14:00:31.573Z,74.51
2023-01-24T14:03:37.962Z,73.41
2023-01-24T14:06:43.640Z,74.12
2023-01-24T14:09:47.756Z,73.09
2023-01-24T14:12:55.296Z,71.80
2023-01-24T14:15:57.808Z,72.81
2023-01-24T14:19:13.174Z,75.12
2023-01-24T14:22:20.381Z,74.79
2023-01-24T14:25:35.612Z,75.58
2023-01-24T14:28:41.452Z,76.16
2023-01-24T14:31:47.919Z,76.31
2023-01-24T14:35:00.173Z,76.73
2023-01-24T14:38:18.157Z,77.02
2023-01-24T14:41:21.876Z,76.60
2023-01-24T14:44:29.701Z,77.56
2023-01-24T14:47:32.884Z,78.86
2023-01-24T14:50:37.721Z,79.60
2023-01-24T14:53:40.512Z,79.99
2023-01-24T14:56:43.095Z,80.33
2023-01-24T14:59:50.872Z,81.63
2023-01-24T15:02:58.751Z,82.21
2023-01-24T15:06:04.060Z,81.87
2023-01-24T15:09:06.250Z,82.88
2023-01-24T15:12:12.982Z,83.62
2023-01-24T15:15:19.180Z,84.63
2023-01-24T15:18:41.944Z,85.51
2023-01-24T15:21:46.971Z,86.72
2023-01-24T15:25:00.972Z,87.74
2023-01-24T15:28:12.148Z,87.31
2023-01-24T15:31:43.713Z,87.49
2023-01-24T15:34:46.976Z,88.11
2023-01-24T15:38:26.532Z,89.46
2023-01-24T15:41:50.146Z,89.70
2023-01-24T15:44:55.375Z,90.09
2023-01-24T15:48:15.608Z,91.16
2023-01-24T15:51:30.326Z,91.63
2023-01-24T15:54:33.738Z,92.99
2023-01-24T15:57:39.325Z,93.38
2023-01-24T16:00:51.258Z,93.93
2023-01-24T16:03:53.601Z,94.24
2023-01-24T16:06:55.772Z,94.67
2023-01-24T16:09:58.210Z,94.21
2023-01-24T16:13:00.400Z,95.02
2023-01-24T16:16:06.620Z,95.21
2023-01-24T16:19:20.750Z,94.68
2023-01-24T16:22:24.017Z,96.10
2023-01-24T16:25:26.198Z,96.54
2023-01-24T16:28:28.749Z,95.19
2023-01-24T16:31:31.005Z,96.61
2023-01-24T16:34:33.446Z,98.42
2023-01-24T16:37:35.723Z,97.37
2023-01-24T16:40:39.008Z,95.92
2023-01-24T16:43:44.423Z,96.87
2023-01-24T16:46:49.777Z,96.83
